sensor_id;sensor_type;location;lat;lon;timestamp;pressure;altitude;pressure_sealevel;temperature;humidity
37764;BME280;23602;51.084;7.090;2023-01-27T00:02:23;100935.66;;;-0.10;100.00
37764;BME280;23602;51.084;7.090;2023-01-27T00:04:48;100926.56;;;-0.17;100.00
37764;BME280;23602;51.084;7.090;2023-01-27T00:07:14;100933.63;;;-0.07;100.00
37764;BME280;23602;51.084;7.090;2023-01-27T00:09:39;100928.34;;;-0.07;100.00
37764;BME280;23602;51.084;7.090;2023-01-27T00:12:08;100953.91;;;0.15;100.00
37764;BME280;23602;51.084;7.090;2023-01-27T00:14:54;100954.84;;;0.14;100.00
37764;BME280;23602;51.084;7.090;2023-01-27T00:17:20;100939.47;;;0.08;100.00
37764;BME280;23602;51.084;7.090;2023-01-27T00:19:45;100948.72;;;0.25;100.00
37764;BME280;23602;51.084;7.090;2023-01-27T00:22:10;100922.81;;;0.08;100.00
37764;BME280;23602;51.084;7.090;2023-01-27T00:24:54;100931.69;;;0.18;100.00
37764;BME280;23602;51.084;7.090;2023-01-27T00:27:23;100928.75;;;0.21;100.00
37764;BME280;23602;51.084;7.090;2023-01-27T00:29:48;100947.47;;;0.29;100.00
37764;BME280;23602;51.084;7.090;2023-01-27T00:32:14;100954.22;;;0.33;100.00
37764;BME280;23602;51.084;7.090;2023-01-27T00:34:58;100962.16;;;0.33;100.00
37764;BME280;23602;51.084;7.090;2023-01-27T00:37:26;100956.97;;;0.31;100.00
37764;BME280;23602;51.084;7.090;2023-01-27T00:39:52;100931.53;;;0.19;100.00
37764;BME280;23602;51.084;7.090;2023-01-27T00:42:17;100950.66;;;0.23;100.00
37764;BME280;23602;51.084;7.090;2023-01-27T00:44:43;100971.97;;;0.42;100.00
37764;BME280;23602;51.084;7.090;2023-01-27T00:47:28;100961.88;;;0.36;100.00
37764;BME280;23602;51.084;7.090;2023-01-27T00:49:54;100982.38;;;0.54;100.00
37764;BME280;23602;51.084;7.090;2023-01-27T00:52:19;100970.50;;;0.49;100.00
37764;BME280;23602;51.084;7.090;2023-01-27T00:54:45;100982.84;;;0.59;100.00
37764;BME280;23602;51.084;7.090;2023-01-27T00:57:10;100967.81;;;0.60;100.00
37764;BME280;23602;51.084;7.090;2023-01-27T00:59:36;100961.22;;;0.54;100.00
37764;BME280;23602;51.084;7.090;2023-01-27T01:02:01;100982.94;;;0.69;100.00
37764;BME280;23602;51.084;7.090;2023-01-27T01:04:27;100980.16;;;0.71;100.00
37764;BME280;23602;51.084;7.090;2023-01-27T01:06:53;100980.41;;;0.68;100.00
37764;BME280;23602;51.084;7.090;2023-01-27T01:09:18;100984.75;;;0.69;100.00
37764;BME280;23602;51.084;7.090;2023-01-27T01:11:43;100990.84;;;0.69;100.00
37764;BME280;23602;51.084;7.090;2023-01-27T01:14:09;100998.75;;;0.80;100.00
37764;BME280;23602;51.084;7.090;2023-01-27T01:16:34;100975.59;;;0.73;100.00
37764;BME280;23602;51.084;7.090;2023-01-27T01:19:00;100994.56;;;0.78;100.00
37764;BME280;23602;51.084;7.090;2023-01-27T01:21:25;101003.66;;;0.85;100.00
37764;BME280;23602;51.084;7.090;2023-01-27T01:23:50;100984.81;;;0.78;100.00
37764;BME280;23602;51.084;7.090;2023-01-27T01:26:16;100989.59;;;0.84;100.00
37764;BME280;23602;51.084;7.090;2023-01-27T01:28:43;101016.25;;;0.92;100.00
37764;BME280;23602;51.084;7.090;2023-01-27T01:31:12;100993.94;;;0.85;100.00
37764;BME280;23602;51.084;7.090;2023-01-27T01:33:37;100994.38;;;0.90;100.00
37764;BME280;23602;51.084;7.090;2023-01-27T01:36:05;101002.22;;;1.12;100.00
37764;BME280;23602;51.084;7.090;2023-01-27T01:38:30;101007.66;;;1.11;100.00
37764;BME280;23602;51.084;7.090;2023-01-27T01:40:58;101005.72;;;1.13;100.00
37764;BME280;23602;51.084;7.090;2023-01-27T01:43:24;100986.06;;;0.95;100.00
37764;BME280;23602;51.084;7.090;2023-01-27T01:45:54;101003.09;;;1.02;100.00
37764;BME280;23602;51.084;7.090;2023-01-27T01:51:21;100992.66;;;1.00;100.00
37764;BME280;23602;51.084;7.090;2023-01-27T01:53:59;101013.41;;;1.16;100.00
37764;BME280;23602;51.084;7.090;2023-01-27T01:56:30;101012.44;;;1.17;100.00
37764;BME280;23602;51.084;7.090;2023-01-27T01:59:03;101006.81;;;1.10;100.00
37764;BME280;23602;51.084;7.090;2023-01-27T02:01:34;101007.97;;;1.17;100.00
37764;BME280;23602;51.084;7.090;2023-01-27T02:04:04;100992.88;;;1.08;100.00
37764;BME280;23602;51.084;7.090;2023-01-27T02:06:48;101003.44;;;1.08;100.00
37764;BME280;23602;51.084;7.090;2023-01-27T02:09:15;101008.81;;;1.18;100.00
37764;BME280;23602;51.084;7.090;2023-01-27T02:11:41;101037.28;;;1.25;100.00
37764;BME280;23602;51.084;7.090;2023-01-27T02:14:16;101031.78;;;1.38;100.00
37764;BME280;23602;51.084;7.090;2023-01-27T02:16:43;101033.75;;;1.36;100.00
37764;BME280;23602;51.084;7.090;2023-01-27T02:19:15;101035.88;;;1.42;100.00
37764;BME280;23602;51.084;7.090;2023-01-27T02:21:47;101006.50;;;1.24;100.00
37764;BME280;23602;51.084;7.090;2023-01-27T02:24:14;101016.56;;;1.31;100.00
37764;BME280;23602;51.084;7.090;2023-01-27T02:26:43;101016.25;;;1.24;100.00
37764;BME280;23602;51.084;7.090;2023-01-27T02:29:11;101010.69;;;1.27;100.00
37764;BME280;23602;51.084;7.090;2023-01-27T02:31:37;100997.38;;;1.17;100.00
37764;BME280;23602;51.084;7.090;2023-01-27T02:34:12;101002.56;;;1.19;100.00
37764;BME280;23602;51.084;7.090;2023-01-27T02:36:52;101016.69;;;1.29;100.00
37764;BME280;23602;51.084;7.090;2023-01-27T02:39:21;101006.41;;;1.15;100.00
37764;BME280;23602;51.084;7.090;2023-01-27T02:41:53;101015.53;;;1.22;100.00
37764;BME280;23602;51.084;7.090;2023-01-27T02:44:20;101025.03;;;1.24;100.00
37764;BME280;23602;51.084;7.090;2023-01-27T02:46:46;101024.19;;;1.24;100.00
37764;BME280;23602;51.084;7.090;2023-01-27T02:49:12;101013.72;;;1.22;100.00
37764;BME280;23602;51.084;7.090;2023-01-27T02:51:38;101007.16;;;1.17;100.00
37764;BME280;23602;51.084;7.090;2023-01-27T02:54:03;101024.91;;;1.26;100.00
37764;BME280;23602;51.084;7.090;2023-01-27T02:56:29;101008.34;;;1.13;100.00
37764;BME280;23602;51.084;7.090;2023-01-27T02:58:54;101008.34;;;1.13;100.00
37764;BME280;23602;51.084;7.090;2023-01-27T03:01:20;101018.69;;;1.16;100.00
37764;BME280;23602;51.084;7.090;2023-01-27T03:03:46;101013.91;;;1.10;100.00
37764;BME280;23602;51.084;7.090;2023-01-27T03:06:14;101029.59;;;1.22;100.00
37764;BME280;23602;51.084;7.090;2023-01-27T03:08:40;101022.19;;;1.16;100.00
37764;BME280;23602;51.084;7.090;2023-01-27T03:11:06;101009.13;;;1.04;100.00
37764;BME280;23602;51.084;7.090;2023-01-27T03:13:32;101014.53;;;1.02;100.00
37764;BME280;23602;51.084;7.090;2023-01-27T03:15:58;101025.31;;;1.10;100.00
37764;BME280;23602;51.084;7.090;2023-01-27T03:18:43;101022.81;;;1.09;100.00
37764;BME280;23602;51.084;7.090;2023-01-27T03:21:15;101025.31;;;1.10;100.00
37764;BME280;23602;51.084;7.090;2023-01-27T03:23:41;101024.03;;;1.05;100.00
37764;BME280;23602;51.084;7.090;2023-01-27T03:26:08;101036.50;;;1.14;100.00
37764;BME280;23602;51.084;7.090;2023-01-27T03:28:34;101032.19;;;1.13;100.00
37764;BME280;23602;51.084;7.090;2023-01-27T03:31:01;101018.88;;;1.03;100.00
37764;BME280;23602;51.084;7.090;2023-01-27T03:33:30;101007.13;;;0.96;100.00
37764;BME280;23602;51.084;7.090;2023-01-27T03:35:57;101042.75;;;1.13;100.00
37764;BME280;23602;51.084;7.090;2023-01-27T03:38:41;101027.75;;;1.02;100.00
37764;BME280;23602;51.084;7.090;2023-01-27T03:41:28;101007.22;;;0.95;100.00
37764;BME280;23602;51.084;7.090;2023-01-27T03:44:12;101025.56;;;1.07;100.00
37764;BME280;23602;51.084;7.090;2023-01-27T03:46:56;101025.00;;;1.04;100.00
37764;BME280;23602;51.084;7.090;2023-01-27T03:49:21;101033.28;;;1.10;100.00
37764;BME280;23602;51.084;7.090;2023-01-27T03:51:47;101027.28;;;1.08;100.00
37764;BME280;23602;51.084;7.090;2023-01-27T03:54:12;101022.94;;;1.07;100.00
37764;BME280;23602;51.084;7.090;2023-01-27T03:56:38;101043.09;;;1.19;100.00
37764;BME280;23602;51.084;7.090;2023-01-27T03:59:03;101022.09;;;1.07;100.00
37764;BME280;23602;51.084;7.090;2023-01-27T04:01:28;101041.66;;;1.15;100.00
37764;BME280;23602;51.084;7.090;2023-01-27T04:03:54;101030.47;;;1.12;100.00
37764;BME280;23602;51.084;7.090;2023-01-27T04:06:40;101033.47;;;1.18;100.00
37764;BME280;23602;51.084;7.090;2023-01-27T04:09:20;101038.06;;;1.16;100.00
37764;BME280;23602;51.084;7.090;2023-01-27T04:11:46;101039.16;;;1.14;100.00
37764;BME280;23602;51.084;7.090;2023-01-27T04:14:31;101023.31;;;1.03;100.00
37764;BME280;23602;51.084;7.090;2023-01-27T04:16:59;101022.63;;;1.01;100.00
37764;BME280;23602;51.084;7.090;2023-01-27T04:19:25;101027.97;;;1.10;100.00
37764;BME280;23602;51.084;7.090;2023-01-27T04:21:51;101010.34;;;1.00;100.00
37764;BME280;23602;51.084;7.090;2023-01-27T04:24:18;101008.41;;;1.02;100.00
37764;BME280;23602;51.084;7.090;2023-01-27T04:26:54;101030.75;;;1.09;100.00
37764;BME280;23602;51.084;7.090;2023-01-27T04:29:22;101020.47;;;0.95;100.00
37764;BME280;23602;51.084;7.090;2023-01-27T04:31:49;101003.66;;;0.85;100.00
37764;BME280;23602;51.084;7.090;2023-01-27T04:34:15;101010.66;;;0.86;100.00
37764;BME280;23602;51.084;7.090;2023-01-27T04:36:41;101042.09;;;1.00;100.00
37764;BME280;23602;51.084;7.090;2023-01-27T04:39:07;101038.25;;;1.04;100.00
37764;BME280;23602;51.084;7.090;2023-01-27T04:41:33;101008.56;;;0.89;100.00
37764;BME280;23602;51.084;7.090;2023-01-27T04:44:00;101033.44;;;0.98;100.00
37764;BME280;23602;51.084;7.090;2023-01-27T04:46:26;101012.59;;;0.84;100.00
37764;BME280;23602;51.084;7.090;2023-01-27T04:48:52;101030.59;;;0.90;100.00
37764;BME280;23602;51.084;7.090;2023-01-27T04:51:18;101025.06;;;0.82;100.00
37764;BME280;23602;51.084;7.090;2023-01-27T04:53:43;101035.41;;;0.85;100.00
37764;BME280;23602;51.084;7.090;2023-01-27T04:56:27;101046.94;;;0.95;100.00
37764;BME280;23602;51.084;7.090;2023-01-27T04:59:05;101046.81;;;0.96;100.00
37764;BME280;23602;51.084;7.090;2023-01-27T05:04:36;101039.63;;;0.87;100.00
37764;BME280;23602;51.084;7.090;2023-01-27T05:07:01;101064.09;;;1.00;100.00
37764;BME280;23602;51.084;7.090;2023-01-27T05:09:26;101051.50;;;0.93;100.00
37764;BME280;23602;51.084;7.090;2023-01-27T05:11:52;101045.38;;;0.92;100.00
37764;BME280;23602;51.084;7.090;2023-01-27T05:14:17;101038.13;;;0.94;100.00
37764;BME280;23602;51.084;7.090;2023-01-27T05:16:43;101068.31;;;1.03;100.00
37764;BME280;23602;51.084;7.090;2023-01-27T05:19:09;101063.88;;;1.03;100.00
37764;BME280;23602;51.084;7.090;2023-01-27T05:21:34;101057.41;;;0.96;100.00
37764;BME280;23602;51.084;7.090;2023-01-27T05:24:01;101081.50;;;1.14;100.00
37764;BME280;23602;51.084;7.090;2023-01-27T05:26:27;101077.88;;;1.15;100.00
37764;BME280;23602;51.084;7.090;2023-01-27T05:28:53;101071.66;;;1.05;100.00
37764;BME280;23602;51.084;7.090;2023-01-27T05:31:25;101069.03;;;1.05;100.00
37764;BME280;23602;51.084;7.090;2023-01-27T05:33:52;101085.47;;;1.19;100.00
37764;BME280;23602;51.084;7.090;2023-01-27T05:36:28;101074.53;;;1.13;100.00
37764;BME280;23602;51.084;7.090;2023-01-27T05:38:54;101093.50;;;1.18;100.00
37764;BME280;23602;51.084;7.090;2023-01-27T05:41:20;101089.22;;;1.17;100.00
37764;BME280;23602;51.084;7.090;2023-01-27T05:43:50;101090.88;;;1.18;100.00
37764;BME280;23602;51.084;7.090;2023-01-27T05:46:24;101084.41;;;1.11;100.00
37764;BME280;23602;51.084;7.090;2023-01-27T05:48:53;101082.31;;;1.14;100.00
37764;BME280;23602;51.084;7.090;2023-01-27T05:51:21;101076.47;;;1.11;100.00
37764;BME280;23602;51.084;7.090;2023-01-27T05:53:46;101069.03;;;1.05;100.00
37764;BME280;23602;51.084;7.090;2023-01-27T05:56:14;101098.81;;;1.18;100.00
37764;BME280;23602;51.084;7.090;2023-01-27T05:58:41;101096.41;;;1.15;100.00
37764;BME280;23602;51.084;7.090;2023-01-27T06:01:19;101109.16;;;1.21;100.00
37764;BME280;23602;51.084;7.090;2023-01-27T06:03:46;101094.16;;;1.10;100.00
37764;BME280;23602;51.084;7.090;2023-01-27T06:06:16;101086.34;;;1.09;100.00
37764;BME280;23602;51.084;7.090;2023-01-27T06:08:42;101087.16;;;1.09;100.00
37764;BME280;23602;51.084;7.090;2023-01-27T06:11:08;101107.47;;;1.20;100.00
37764;BME280;23602;51.084;7.090;2023-01-27T06:13:34;101081.78;;;1.00;100.00
37764;BME280;23602;51.084;7.090;2023-01-27T06:16:01;101082.25;;;1.05;100.00
37764;BME280;23602;51.084;7.090;2023-01-27T06:18:26;101114.59;;;1.19;100.00
37764;BME280;23602;51.084;7.090;2023-01-27T06:20:55;101098.72;;;1.08;100.00
37764;BME280;23602;51.084;7.090;2023-01-27T06:23:21;101105.44;;;1.12;100.00
37764;BME280;23602;51.084;7.090;2023-01-27T06:25:47;101098.59;;;1.10;100.00
37764;BME280;23602;51.084;7.090;2023-01-27T06:28:14;101083.34;;;1.02;100.00
37764;BME280;23602;51.084;7.090;2023-01-27T06:30:40;101106.28;;;1.13;100.00
37764;BME280;23602;51.084;7.090;2023-01-27T06:33:06;101094.53;;;1.06;100.00
37764;BME280;23602;51.084;7.090;2023-01-27T06:35:32;101111.34;;;1.16;100.00
37764;BME280;23602;51.084;7.090;2023-01-27T06:37:59;101090.44;;;1.02;100.00
37764;BME280;23602;51.084;7.090;2023-01-27T06:40:25;101103.88;;;1.10;100.00
37764;BME280;23602;51.084;7.090;2023-01-27T06:42:51;101117.00;;;1.11;100.00
37764;BME280;23602;51.084;7.090;2023-01-27T06:45:16;101135.63;;;1.21;100.00
37764;BME280;23602;51.084;7.090;2023-01-27T06:47:42;101117.00;;;1.11;100.00
37764;BME280;23602;51.084;7.090;2023-01-27T06:50:09;101117.72;;;1.13;100.00
37764;BME280;23602;51.084;7.090;2023-01-27T06:52:35;101114.00;;;1.05;100.00
37764;BME280;23602;51.084;7.090;2023-01-27T06:55:02;101103.66;;;1.02;100.00
37764;BME280;23602;51.084;7.090;2023-01-27T06:57:28;101138.97;;;1.23;100.00
37764;BME280;23602;51.084;7.090;2023-01-27T06:59:53;101134.44;;;1.14;100.00
37764;BME280;23602;51.084;7.090;2023-01-27T07:02:18;101145.59;;;1.28;100.00
37764;BME280;23602;51.084;7.090;2023-01-27T07:04:44;101133.59;;;1.24;100.00
37764;BME280;23602;51.084;7.090;2023-01-27T07:07:09;101139.84;;;1.23;100.00
37764;BME280;23602;51.084;7.090;2023-01-27T07:09:34;101129.16;;;1.14;100.00
37764;BME280;23602;51.084;7.090;2023-01-27T07:12:00;101148.84;;;1.32;100.00
37764;BME280;23602;51.084;7.090;2023-01-27T07:14:28;101142.34;;;1.25;100.00
37764;BME280;23602;51.084;7.090;2023-01-27T07:16:53;101141.16;;;1.18;100.00
37764;BME280;23602;51.084;7.090;2023-01-27T07:19:19;101156.03;;;1.30;100.00
37764;BME280;23602;51.084;7.090;2023-01-27T07:21:44;101148.72;;;1.22;100.00
37764;BME280;23602;51.084;7.090;2023-01-27T07:24:10;101157.59;;;1.33;100.00
37764;BME280;23602;51.084;7.090;2023-01-27T07:26:35;101133.94;;;1.20;100.00
37764;BME280;23602;51.084;7.090;2023-01-27T07:29:00;101153.41;;;1.30;100.00
37764;BME280;23602;51.084;7.090;2023-01-27T07:31:26;101153.41;;;1.30;100.00
37764;BME280;23602;51.084;7.090;2023-01-27T07:33:52;101169.00;;;1.44;100.00
37764;BME280;23602;51.084;7.090;2023-01-27T07:36:17;101139.44;;;1.28;100.00
37764;BME280;23602;51.084;7.090;2023-01-27T07:38:43;101137.41;;;1.32;100.00
37764;BME280;23602;51.084;7.090;2023-01-27T07:41:08;101145.22;;;1.33;100.00
37764;BME280;23602;51.084;7.090;2023-01-27T07:43:34;101160.00;;;1.36;100.00
37764;BME280;23602;51.084;7.090;2023-01-27T07:45:59;101138.28;;;1.21;100.00
37764;BME280;23602;51.084;7.090;2023-01-27T07:48:25;101168.19;;;1.33;100.00
37764;BME280;23602;51.084;7.090;2023-01-27T07:50:51;101149.72;;;1.21;100.00
37764;BME280;23602;51.084;7.090;2023-01-27T07:53:16;101148.72;;;1.22;100.00
37764;BME280;23602;51.084;7.090;2023-01-27T07:55:42;101172.53;;;1.34;100.00
37764;BME280;23602;51.084;7.090;2023-01-27T07:58:08;101155.94;;;1.32;100.00
37764;BME280;23602;51.084;7.090;2023-01-27T08:00:34;101150.41;;;1.23;100.00
37764;BME280;23602;51.084;7.090;2023-01-27T08:03:00;101174.78;;;1.38;100.00
37764;BME280;23602;51.084;7.090;2023-01-27T08:05:27;101169.25;;;1.41;100.00
37764;BME280;23602;51.084;7.090;2023-01-27T08:07:54;101154.47;;;1.27;100.00
37764;BME280;23602;51.084;7.090;2023-01-27T08:10:20;101167.84;;;1.37;100.00
37764;BME280;23602;51.084;7.090;2023-01-27T08:12:46;101150.88;;;1.28;100.00
37764;BME280;23602;51.084;7.090;2023-01-27T08:15:12;101151.34;;;1.34;100.00
37764;BME280;23602;51.084;7.090;2023-01-27T08:17:40;101168.00;;;1.56;100.00
37764;BME280;23602;51.084;7.090;2023-01-27T08:20:06;101173.88;;;1.60;100.00
37764;BME280;23602;51.084;7.090;2023-01-27T08:22:32;101169.28;;;1.62;100.00
37764;BME280;23602;51.084;7.090;2023-01-27T08:24:58;101175.16;;;1.65;100.00
37764;BME280;23602;51.084;7.090;2023-01-27T08:27:23;101186.88;;;1.83;100.00
37764;BME280;23602;51.084;7.090;2023-01-27T08:29:49;101165.44;;;1.86;100.00
37764;BME280;23602;51.084;7.090;2023-01-27T08:32:14;101166.72;;;1.92;100.00
37764;BME280;23602;51.084;7.090;2023-01-27T08:34:39;101168.53;;;1.91;100.00
37764;BME280;23602;51.084;7.090;2023-01-27T08:37:06;101173.81;;;2.12;100.00
37764;BME280;23602;51.084;7.090;2023-01-27T08:39:32;101175.38;;;2.15;100.00
37764;BME280;23602;51.084;7.090;2023-01-27T08:41:58;101171.47;;;2.19;100.00
37764;BME280;23602;51.084;7.090;2023-01-27T08:44:23;101145.69;;;2.21;100.00
37764;BME280;23602;51.084;7.090;2023-01-27T08:46:49;101158.09;;;2.41;100.00
37764;BME280;23602;51.084;7.090;2023-01-27T08:49:15;101144.41;;;2.45;100.00
37764;BME280;23602;51.084;7.090;2023-01-27T08:51:41;101137.56;;;2.43;100.00
37764;BME280;23602;51.084;7.090;2023-01-27T08:54:08;101159.72;;;2.72;100.00
37764;BME280;23602;51.084;7.090;2023-01-27T08:56:34;101156.03;;;2.84;100.00
37764;BME280;23602;51.084;7.090;2023-01-27T08:58:59;101128.03;;;2.80;100.00
37764;BME280;23602;51.084;7.090;2023-01-27T09:01:25;101107.06;;;2.77;100.00
37764;BME280;23602;51.084;7.090;2023-01-27T09:03:51;101089.66;;;2.84;100.00
37764;BME280;23602;51.084;7.090;2023-01-27T09:06:17;101101.41;;;3.01;100.00
37764;BME280;23602;51.084;7.090;2023-01-27T09:08:43;101078.50;;;3.09;100.00
37764;BME280;23602;51.084;7.090;2023-01-27T09:11:12;101069.69;;;3.18;100.00
37764;BME280;23602;51.084;7.090;2023-01-27T09:13:38;101037.69;;;3.20;100.00
37764;BME280;23602;51.084;7.090;2023-01-27T09:16:04;101020.50;;;3.14;100.00
37764;BME280;23602;51.084;7.090;2023-01-27T09:18:29;101017.25;;;3.20;100.00
37764;BME280;23602;51.084;7.090;2023-01-27T09:20:55;101019.50;;;3.15;100.00
37764;BME280;23602;51.084;7.090;2023-01-27T09:23:20;101005.41;;;3.05;100.00
37764;BME280;23602;51.084;7.090;2023-01-27T09:25:46;101025.13;;;3.12;100.00
37764;BME280;23602;51.084;7.090;2023-01-27T09:28:11;101020.22;;;3.17;100.00
37764;BME280;23602;51.084;7.090;2023-01-27T09:30:45;101000.38;;;3.22;100.00
37764;BME280;23602;51.084;7.090;2023-01-27T09:33:12;100996.25;;;3.46;100.00
37764;BME280;23602;51.084;7.090;2023-01-27T09:35:55;100975.47;;;3.32;100.00
37764;BME280;23602;51.084;7.090;2023-01-27T09:38:22;100971.41;;;3.38;100.00
37764;BME280;23602;51.084;7.090;2023-01-27T09:43:46;101010.78;;;3.52;100.00
37764;BME280;23602;51.084;7.090;2023-01-27T09:57:40;101018.03;;;3.69;100.00
37764;BME280;23602;51.084;7.090;2023-01-27T10:10:51;101043.88;;;3.76;100.00
37764;BME280;23602;51.084;7.090;2023-01-27T10:19:11;101022.28;;;3.89;100.00
37764;BME280;23602;51.084;7.090;2023-01-27T10:21:59;101021.56;;;3.97;100.00
37764;BME280;23602;51.084;7.090;2023-01-27T10:27:48;101004.16;;;3.75;100.00
37764;BME280;23602;51.084;7.090;2023-01-27T10:33:17;101011.25;;;3.84;100.00
37764;BME280;23602;51.084;7.090;2023-01-27T10:35:58;101006.63;;;3.96;100.00
37764;BME280;23602;51.084;7.090;2023-01-27T10:38:44;101009.00;;;3.99;100.00
37764;BME280;23602;51.084;7.090;2023-01-27T10:44:12;101018.16;;;4.14;100.00
37764;BME280;23602;51.084;7.090;2023-01-27T10:49:22;100995.13;;;4.22;100.00
37764;BME280;23602;51.084;7.090;2023-01-27T10:51:57;100989.69;;;4.24;100.00
37764;BME280;23602;51.084;7.090;2023-01-27T10:56:57;100965.13;;;4.30;100.00
37764;BME280;23602;51.084;7.090;2023-01-27T10:59:46;100970.88;;;4.53;100.00
37764;BME280;23602;51.084;7.090;2023-01-27T11:02:28;100979.47;;;4.64;100.00
37764;BME280;23602;51.084;7.090;2023-01-27T11:05:01;100968.06;;;4.72;100.00
37764;BME280;23602;51.084;7.090;2023-01-27T11:07:31;100953.16;;;4.79;100.00
37764;BME280;23602;51.084;7.090;2023-01-27T11:10:01;100944.78;;;4.74;100.00
37764;BME280;23602;51.084;7.090;2023-01-27T11:12:35;100962.66;;;4.81;100.00
37764;BME280;23602;51.084;7.090;2023-01-27T11:15:29;100975.00;;;4.82;100.00
37764;BME280;23602;51.084;7.090;2023-01-27T11:18:11;100963.69;;;4.80;100.00
37764;BME280;23602;51.084;7.090;2023-01-27T11:20:43;100967.31;;;4.62;100.00
37764;BME280;23602;51.084;7.090;2023-01-27T11:23:17;100968.28;;;4.78;100.00
37764;BME280;23602;51.084;7.090;2023-01-27T11:29:09;100954.00;;;4.97;100.00
37764;BME280;23602;51.084;7.090;2023-01-27T11:31:53;100949.72;;;4.86;100.00
37764;BME280;23602;51.084;7.090;2023-01-27T11:34:32;100950.94;;;4.92;100.00
37764;BME280;23602;51.084;7.090;2023-01-27T11:37:18;100960.16;;;4.97;100.00
37764;BME280;23602;51.084;7.090;2023-01-27T11:39:45;100928.22;;;4.80;100.00
37764;BME280;23602;51.084;7.090;2023-01-27T11:42:11;100920.69;;;4.75;100.00
37764;BME280;23602;51.084;7.090;2023-01-27T11:44:37;100929.28;;;4.87;100.00
37764;BME280;23602;51.084;7.090;2023-01-27T11:47:06;100930.09;;;5.05;100.00
37764;BME280;23602;51.084;7.090;2023-01-27T11:49:40;100909.69;;;4.96;100.00
37764;BME280;23602;51.084;7.090;2023-01-27T11:52:16;100921.44;;;4.85;100.00
37764;BME280;23602;51.084;7.090;2023-01-27T11:54:53;100937.03;;;4.98;100.00
37764;BME280;23602;51.084;7.090;2023-01-27T11:57:23;100923.06;;;5.04;100.00
37764;BME280;23602;51.084;7.090;2023-01-27T12:00:18;100921.19;;;4.96;100.00
37764;BME280;23602;51.084;7.090;2023-01-27T12:02:48;100912.53;;;4.94;100.00
37764;BME280;23602;51.084;7.090;2023-01-27T12:05:38;100923.63;;;5.07;100.00
37764;BME280;23602;51.084;7.090;2023-01-27T12:08:06;100906.16;;;4.87;100.00
37764;BME280;23602;51.084;7.090;2023-01-27T12:10:35;100915.72;;;4.98;100.00
37764;BME280;23602;51.084;7.090;2023-01-27T12:13:16;100917.31;;;4.91;100.00
37764;BME280;23602;51.084;7.090;2023-01-27T12:15:58;100927.16;;;4.90;100.00
37764;BME280;23602;51.084;7.090;2023-01-27T12:18:25;100906.75;;;4.81;100.00
37764;BME280;23602;51.084;7.090;2023-01-27T12:21:03;100903.31;;;4.89;100.00
37764;BME280;23602;51.084;7.090;2023-01-27T12:23:35;100919.84;;;4.92;100.00
37764;BME280;23602;51.084;7.090;2023-01-27T12:26:04;100905.84;;;4.90;100.00
37764;BME280;23602;51.084;7.090;2023-01-27T12:28:36;100901.03;;;4.94;100.00
37764;BME280;23602;51.084;7.090;2023-01-27T12:31:10;100897.09;;;4.98;100.00
37764;BME280;23602;51.084;7.090;2023-01-27T12:33:43;100894.03;;;4.93;100.00
37764;BME280;23602;51.084;7.090;2023-01-27T12:36:15;100884.31;;;4.84;100.00
37764;BME280;23602;51.084;7.090;2023-01-27T12:38:50;100887.97;;;4.83;100.00
37764;BME280;23602;51.084;7.090;2023-01-27T12:41:22;100879.75;;;4.76;100.00
37764;BME280;23602;51.084;7.090;2023-01-27T12:44:15;100881.16;;;4.63;100.00
37764;BME280;23602;51.084;7.090;2023-01-27T12:49:24;100880.22;;;4.72;100.00
37764;BME280;23602;51.084;7.090;2023-01-27T12:51:54;100885.53;;;4.72;100.00
37764;BME280;23602;51.084;7.090;2023-01-27T12:54:21;100894.00;;;4.67;100.00
37764;BME280;23602;51.084;7.090;2023-01-27T12:56:52;100900.91;;;4.78;100.00
37764;BME280;23602;51.084;7.090;2023-01-27T12:59:19;100888.69;;;4.67;100.00
37764;BME280;23602;51.084;7.090;2023-01-27T13:02:17;100889.94;;;4.63;100.00
37764;BME280;23602;51.084;7.090;2023-01-27T13:04:53;100908.81;;;4.70;100.00
37764;BME280;23602;51.084;7.090;2023-01-27T13:07:28;100890.88;;;4.36;100.00
37764;BME280;23602;51.084;7.090;2023-01-27T13:10:05;100900.31;;;4.48;100.00
37764;BME280;23602;51.084;7.090;2023-01-27T13:12:54;100925.56;;;4.62;100.00
37764;BME280;23602;51.084;7.090;2023-01-27T13:15:21;100903.19;;;4.55;100.00
37764;BME280;23602;51.084;7.090;2023-01-27T13:17:53;100926.31;;;4.72;100.00
37764;BME280;23602;51.084;7.090;2023-01-27T13:20:27;100924.63;;;4.54;100.00
37764;BME280;23602;51.084;7.090;2023-01-27T13:23:04;100923.59;;;4.46;100.00
37764;BME280;23602;51.084;7.090;2023-01-27T13:25:43;100909.06;;;4.41;100.00
37764;BME280;23602;51.084;7.090;2023-01-27T13:28:17;100939.00;;;4.43;100.00
37764;BME280;23602;51.084;7.090;2023-01-27T13:30:48;100909.66;;;4.35;100.00
37764;BME280;23602;51.084;7.090;2023-01-27T13:36:00;100931.09;;;4.33;100.00
37764;BME280;23602;51.084;7.090;2023-01-27T13:38:47;100929.41;;;4.32;100.00
37764;BME280;23602;51.084;7.090;2023-01-27T13:41:30;100937.72;;;4.29;100.00
37764;BME280;23602;51.084;7.090;2023-01-27T13:44:04;100924.59;;;4.18;100.00
37764;BME280;23602;51.084;7.090;2023-01-27T13:46:36;100956.00;;;4.32;100.00
37764;BME280;23602;51.084;7.090;2023-01-27T13:49:10;100941.25;;;4.20;100.00
37764;BME280;23602;51.084;7.090;2023-01-27T13:51:37;100959.50;;;4.33;100.00
37764;BME280;23602;51.084;7.090;2023-01-27T13:54:03;100960.28;;;4.43;100.00
37764;BME280;23602;51.084;7.090;2023-01-27T13:57:17;100941.06;;;4.31;100.00
37764;BME280;23602;51.084;7.090;2023-01-27T14:07:52;100959.00;;;4.29;100.00
37764;BME280;23602;51.084;7.090;2023-01-27T14:10:35;100962.53;;;4.20;100.00
37764;BME280;23602;51.084;7.090;2023-01-27T14:13:32;100935.84;;;4.12;100.00